Main page
METAR-TAF:

METAR-TAF

Airports :

Chiang Mai International Airport

Chiang Mai, Thailand

latitude: 18-47N, longitude: 098-59E, elevation: 312 m

Current weather observation

The report was made 39 minutes ago, at 17:30 UTC
Wind 4 kt from the West/Southwest
Temperature 24°C
Humidity 61%
Pressure 1013 hPa
Visibility: 7000 m
Scattered clouds at a height of 3500 ft

METAR: VTCC 281730Z 24004KT 7000 SCT035 24/16 Q1013 NOSIG

Time: 01:09 (18:09 UTC)

Forecast

The report was made 1 hour and 9 minutes ago, at 17:00 UTC
Forecast valid from 28 at 18 UTC to 29 at 24 UTC
Wind 4 kt from the North/Northwest
Visibility: 7000 m
Few clouds at a height of 3500 ft
Becoming
from 29 at 01 UTC to 29 at 03 UTC
Wind 5 kt from the South

TAF: VTCC 281700Z 2818/2924 33004KT 7000 FEW035 BECMG 2901/2903 18005KT

Weather observations and forecasts of more than 4000 airports (METAR and TAF reports).

The available stations are represented by yellow and red dots on the map.

Hover mouse over dot to see the name of the station.

Then click to see weather observations and forecasts.

To change the map : click on the green buttons with a black cross to zoom in, on the green button with a dash to zoom out, or on the green arrows for adjacent maps.


METAR-TAF: